Time;durP1;ratioP1;P1;durP2;ratioP2;P2;SDS_P1;SDS_P2;PMS_P1;PMS_P2;Temp;Humidity;BMP_temperature;BMP_pressure;BME280_temperature;BME280_humidity;BME280_pressure;Samples;Min_cycle;Max_cycle;Signal;HPM_P1;HPM_P2
2021/08/16 00:01:09;;;;;;;2.70;1.23;;;18.00;99.90;;;;;;4960825;28;20039;-85
2021/08/16 00:03:34;;;;;;;1.50;0.50;;;18.00;99.90;;;;;;4962933;28;20441;-85
2021/08/16 00:06:00;;;;;;;0.20;0.20;;;18.10;99.90;;;;;;4964851;28;20484;-85
2021/08/16 00:08:26;;;;;;;1.23;0.70;;;18.10;99.90;;;;;;4963606;28;20075;-85
2021/08/16 00:10:51;;;;;;;0.77;0.77;;;18.20;99.90;;;;;;4965261;28;20039;-85
2021/08/16 00:13:20;;;;;;;0.83;0.83;;;18.20;99.90;;;;;;4963609;28;20064;-85
2021/08/16 00:15:46;;;;;;;4.63;1.17;;;18.20;99.90;;;;;;4964314;28;20038;-85
2021/08/16 00:18:11;;;;;;;0.85;0.85;;;18.20;99.90;;;;;;4962866;28;20420;-85
2021/08/16 00:20:37;;;;;;;0.97;0.97;;;18.10;99.90;;;;;;4963862;28;20035;-85
2021/08/16 00:23:03;;;;;;;0.60;0.50;;;18.10;99.90;;;;;;4962982;28;20062;-85
2021/08/16 00:25:30;;;;;;;0.30;0.30;;;18.10;99.90;;;;;;4964913;28;20037;-85
2021/08/16 00:27:55;;;;;;;0.50;0.40;;;18.00;99.90;;;;;;4961815;28;20539;-85
2021/08/16 00:30:22;;;;;;;0.40;0.37;;;18.00;99.90;;;;;;4963541;28;20133;-84
2021/08/16 00:32:49;;;;;;;1.05;0.60;;;18.00;99.90;;;;;;4963659;28;20042;-85
2021/08/16 00:35:15;;;;;;;0.40;0.40;;;18.00;99.90;;;;;;4962827;28;20865;-85
2021/08/16 00:37:42;;;;;;;0.25;0.25;;;18.00;99.90;;;;;;4964917;28;20078;-85
2021/08/16 00:40:08;;;;;;;;;;;17.80;99.90;;;;;;4963311;28;20054;-85
2021/08/16 00:42:34;;;;;;;0.20;0.20;;;17.70;99.90;;;;;;4962382;28;20476;-85
2021/08/16 00:45:03;;;;;;;0.30;0.30;;;17.60;99.90;;;;;;4961799;28;20450;-86
2021/08/16 00:47:29;;;;;;;0.38;0.30;;;17.60;99.90;;;;;;4962681;28;20576;-85
2021/08/16 00:49:55;;;;;;;0.17;0.17;;;17.60;99.90;;;;;;4964185;28;20097;-85
2021/08/16 00:52:21;;;;;;;0.27;0.27;;;17.70;99.90;;;;;;4961560;28;20859;-85
2021/08/16 00:54:47;;;;;;;;;;;17.70;99.90;;;;;;4963718;28;20116;-85
2021/08/16 00:57:13;;;;;;;0.73;0.73;;;17.70;99.90;;;;;;4963114;28;19997;-86
2021/08/16 00:59:38;;;;;;;0.57;0.40;;;17.70;99.90;;;;;;4963945;28;20035;-85
2021/08/16 01:02:04;;;;;;;0.17;0.10;;;17.70;99.90;;;;;;4963436;28;20109;-86
2021/08/16 01:04:30;;;;;;;0.37;0.37;;;17.80;99.90;;;;;;4963458;28;20031;-86
2021/08/16 01:06:56;;;;;;;0.35;0.35;;;17.80;99.90;;;;;;4962582;28;20041;-85
2021/08/16 01:09:22;;;;;;;0.20;0.20;;;17.80;99.90;;;;;;4963063;28;20023;-86
2021/08/16 01:11:49;;;;;;;0.13;0.13;;;17.80;99.90;;;;;;4962277;28;20027;-86
2021/08/16 01:14:16;;;;;;;0.60;0.35;;;17.80;99.90;;;;;;4961690;28;20502;-85
2021/08/16 01:16:42;;;;;;;0.47;0.47;;;17.80;99.90;;;;;;4959461;28;20031;-84
2021/08/16 01:19:08;;;;;;;0.20;0.20;;;17.80;99.90;;;;;;4960354;28;20073;-84
2021/08/16 01:21:34;;;;;;;0.30;0.30;;;17.80;99.90;;;;;;4963254;28;20038;-84
2021/08/16 01:24:00;;;;;;;0.10;0.10;;;17.80;99.90;;;;;;4962751;28;20047;-84
2021/08/16 01:26:30;;;;;;;0.10;0.10;;;17.70;99.90;;;;;;4963226;28;20038;-84
2021/08/16 01:28:56;;;;;;;0.80;0.43;;;17.70;99.90;;;;;;4964106;28;20031;-84
2021/08/16 01:31:21;;;;;;;0.20;0.20;;;17.70;99.90;;;;;;4962951;28;20031;-84
2021/08/16 01:33:47;;;;;;;0.00;0.00;;;17.70;99.90;;;;;;4962641;28;20378;-83
2021/08/16 01:36:13;;;;;;;0.03;0.03;;;17.80;99.90;;;;;;4967091;28;20035;-84
2021/08/16 01:38:41;;;;;;;0.37;0.37;;;17.60;99.90;;;;;;4965287;28;20051;-83
2021/08/16 01:41:07;;;;;;;0.10;0.10;;;17.50;99.90;;;;;;4966838;28;20035;-83
2021/08/16 01:43:33;;;;;;;0.17;0.17;;;17.40;99.90;;;;;;4967035;28;20788;-84
2021/08/16 01:45:59;;;;;;;0.07;0.07;;;17.30;99.90;;;;;;4962793;28;20029;-84
2021/08/16 01:48:25;;;;;;;0.00;0.00;;;17.20;99.90;;;;;;4963446;28;20058;-84
2021/08/16 01:50:51;;;;;;;0.00;0.00;;;17.20;99.90;;;;;;4967096;28;20042;-84
2021/08/16 01:53:17;;;;;;;0.20;0.20;;;17.30;99.90;;;;;;4965750;28;20035;-84
2021/08/16 01:55:43;;;;;;;0.83;0.30;;;17.30;99.90;;;;;;4968575;28;20050;-84
2021/08/16 01:58:10;;;;;;;1.70;0.30;;;17.30;99.90;;;;;;4966143;28;20425;-83
2021/08/16 02:00:35;;;;;;;3.72;0.22;;;17.30;99.90;;;;;;4966780;28;20161;-83
2021/08/16 02:03:01;;;;;;;0.50;0.40;;;17.30;99.90;;;;;;4965890;28;20549;-84
2021/08/16 02:05:27;;;;;;;0.20;0.20;;;17.20;99.90;;;;;;4965748;28;20072;-83
2021/08/16 02:07:52;;;;;;;0.00;0.00;;;17.30;99.90;;;;;;4962674;28;20031;-84
2021/08/16 02:10:18;;;;;;;0.60;0.20;;;17.30;99.90;;;;;;4966723;28;20049;-83
2021/08/16 02:12:44;;;;;;;0.17;0.17;;;17.30;99.90;;;;;;4966091;28;20394;-84
2021/08/16 02:15:11;;;;;;;0.07;0.07;;;17.30;99.90;;;;;;4966296;28;20286;-84
2021/08/16 02:17:37;;;;;;;0.13;0.13;;;17.30;99.90;;;;;;4965872;28;20031;-84
2021/08/16 02:20:07;;;;;;;0.10;0.10;;;17.20;99.90;;;;;;4965569;28;20039;-83
2021/08/16 02:22:33;;;;;;;0.55;0.40;;;17.20;99.90;;;;;;4966174;28;20533;-84
2021/08/16 02:24:58;;;;;;;0.23;0.23;;;17.20;99.90;;;;;;4966071;28;20033;-83
2021/08/16 02:27:24;;;;;;;0.13;0.13;;;17.20;99.90;;;;;;4965868;28;20035;-85
2021/08/16 02:29:50;;;;;;;0.10;0.10;;;17.20;99.90;;;;;;4963068;28;20121;-83
2021/08/16 02:32:16;;;;;;;0.07;0.07;;;17.10;99.90;;;;;;4965684;28;20494;-84
2021/08/16 02:34:41;;;;;;;0.10;0.10;;;17.20;99.90;;;;;;4955085;28;20090;-84
2021/08/16 02:37:07;;;;;;;0.00;0.00;;;17.20;99.90;;;;;;4955776;28;20031;-84
2021/08/16 02:39:33;;;;;;;0.00;0.00;;;17.10;99.90;;;;;;4959972;28;20870;-85
2021/08/16 02:41:58;;;;;;;0.47;0.47;;;17.10;99.90;;;;;;4965716;28;20034;-83
2021/08/16 02:44:24;;;;;;;0.17;0.17;;;17.20;99.90;;;;;;4963984;28;20031;-84
2021/08/16 02:46:50;;;;;;;0.00;0.00;;;17.10;99.90;;;;;;4956060;28;20042;-84
2021/08/16 02:49:16;;;;;;;0.30;0.30;;;17.10;99.90;;;;;;4965622;28;20121;-84
2021/08/16 02:51:41;;;;;;;0.37;0.17;;;17.00;99.90;;;;;;4965673;28;20035;-84
2021/08/16 02:54:07;;;;;;;0.63;0.40;;;17.00;99.90;;;;;;4959354;28;20050;-84
2021/08/16 02:56:33;;;;;;;0.10;0.10;;;17.00;99.90;;;;;;4965986;28;20023;-85
2021/08/16 02:58:58;;;;;;;6.83;0.20;;;17.00;99.90;;;;;;4967097;28;20035;-85
2021/08/16 03:01:24;;;;;;;0.20;0.10;;;17.00;99.90;;;;;;4956364;28;20035;-84
2021/08/16 03:03:50;;;;;;;0.00;0.00;;;16.90;99.90;;;;;;4961497;28;20409;-84
2021/08/16 03:06:15;;;;;;;0.00;0.00;;;16.90;99.90;;;;;;4965243;28;20063;-84
2021/08/16 03:08:41;;;;;;;0.00;0.00;;;16.90;99.90;;;;;;4965306;28;20572;-84
2021/08/16 03:11:08;;;;;;;0.20;0.20;;;17.00;99.90;;;;;;4965222;28;20033;-84
2021/08/16 03:13:34;;;;;;;;;;;17.00;99.90;;;;;;4964092;28;20046;-84
2021/08/16 03:16:00;;;;;;;0.10;0.10;;;17.10;99.90;;;;;;4959729;28;19972;-84
2021/08/16 03:18:26;;;;;;;0.82;0.22;;;17.10;99.90;;;;;;4957786;28;20042;-84
2021/08/16 03:20:52;;;;;;;6.53;0.67;;;17.10;99.90;;;;;;4964932;28;20031;-84
2021/08/16 03:23:19;;;;;;;0.08;0.08;;;17.20;99.90;;;;;;4965266;28;20043;-84
2021/08/16 03:25:45;;;;;;;0.10;0.10;;;17.00;99.90;;;;;;4966712;28;20113;-84
2021/08/16 03:28:11;;;;;;;0.20;0.20;;;17.00;99.90;;;;;;4964869;28;20039;-84
2021/08/16 03:30:36;;;;;;;0.30;0.30;;;16.70;99.90;;;;;;4964636;28;20100;-84
2021/08/16 03:33:02;;;;;;;0.33;0.33;;;16.50;99.90;;;;;;4964322;28;20047;-85
2021/08/16 03:35:28;;;;;;;0.10;0.10;;;16.30;25.30;;;;;;4964509;28;20043;-84
2021/08/16 03:37:54;;;;;;;3.20;0.73;;;16.30;99.90;;;;;;4964770;28;20049;-83
2021/08/16 03:40:19;;;;;;;0.00;0.00;;;16.30;99.90;;;;;;4964528;28;20041;-84
2021/08/16 03:42:45;;;;;;;0.00;0.00;;;16.30;99.90;;;;;;4963549;28;20031;-82
2021/08/16 03:45:18;;;;;;;0.10;0.10;;;16.30;99.90;;;;;;4964714;28;20050;-84
2021/08/16 03:47:44;;;;;;;0.00;0.00;;;16.30;99.90;;;;;;4964573;28;20061;-84
2021/08/16 03:50:11;;;;;;;0.20;0.20;;;16.20;99.90;;;;;;4964514;28;20042;-84
2021/08/16 03:52:36;;;;;;;0.10;0.10;;;16.20;1.00;;;;;;4966589;28;20061;-83
2021/08/16 03:55:03;;;;;;;0.00;0.00;;;16.10;99.90;;;;;;4963688;28;20505;-84
2021/08/16 03:57:29;;;;;;;0.00;0.00;;;16.20;99.90;;;;;;4959178;28;20129;-83
2021/08/16 03:59:54;;;;;;;0.27;0.10;;;16.20;47.40;;;;;;4963660;28;20458;-83
2021/08/16 04:02:21;;;;;;;0.27;0.27;;;16.20;99.90;;;;;;4964423;28;20067;-84
2021/08/16 04:04:47;;;;;;;0.00;0.00;;;16.10;1.00;;;;;;4966567;28;20035;-83
2021/08/16 04:07:13;;;;;;;0.17;0.17;;;16.20;99.90;;;;;;4963907;28;20030;-84
2021/08/16 04:09:39;;;;;;;0.10;0.10;;;16.20;82.60;;;;;;4962197;28;20108;-84
2021/08/16 04:12:05;;;;;;;0.00;0.00;;;16.20;53.50;;;;;;4963908;28;20070;-84
2021/08/16 04:14:31;;;;;;;0.00;0.00;;;16.20;71.40;;;;;;4964201;28;20034;-84
2021/08/16 04:16:56;;;;;;;0.10;0.10;;;16.20;95.00;;;;;;4954638;28;20693;-84
2021/08/16 04:19:22;;;;;;;0.10;0.10;;;16.30;99.90;;;;;;4964135;28;20066;-85
2021/08/16 04:21:48;;;;;;;0.00;0.00;;;16.20;61.80;;;;;;4963380;28;20027;-85
2021/08/16 04:24:14;;;;;;;0.00;0.00;;;16.10;1.00;;;;;;4961787;28;20050;-86
2021/08/16 04:26:39;;;;;;;0.00;0.00;;;16.10;99.90;;;;;;4964302;28;20059;-86
2021/08/16 04:29:05;;;;;;;0.00;0.00;;;16.10;99.90;;;;;;4961691;28;20031;-84
2021/08/16 04:31:31;;;;;;;0.00;0.00;;;16.10;99.90;;;;;;4963385;28;20117;-85
2021/08/16 04:33:57;;;;;;;0.00;0.00;;;16.00;99.90;;;;;;4960282;28;20595;-86
2021/08/16 04:36:22;;;;;;;0.10;0.10;;;16.00;99.90;;;;;;4962585;28;20773;-85
2021/08/16 04:38:48;;;;;;;0.00;0.00;;;16.10;1.00;;;;;;4963320;28;20721;-85
2021/08/16 04:41:14;;;;;;;0.00;0.00;;;16.00;1.00;;;;;;4962770;28;20214;-85
2021/08/16 04:43:39;;;;;;;0.00;0.00;;;16.10;99.90;;;;;;4964219;28;20085;-86
2021/08/16 04:46:05;;;;;;;0.10;0.00;;;16.10;99.90;;;;;;4959080;28;20026;-84
2021/08/16 04:48:31;;;;;;;0.00;0.00;;;16.00;1.00;;;;;;4962709;28;20121;-83
2021/08/16 04:50:57;;;;;;;0.10;0.10;;;16.00;1.00;;;;;;4963689;28;20106;-84
2021/08/16 04:53:22;;;;;;;0.00;0.00;;;16.10;99.90;;;;;;4963501;28;20046;-83
2021/08/16 04:55:48;;;;;;;0.00;0.00;;;16.10;99.90;;;;;;4965989;28;20030;-83
2021/08/16 04:58:14;;;;;;;0.00;0.00;;;16.10;99.90;;;;;;4961969;28;20042;-83
2021/08/16 05:00:39;;;;;;;0.00;0.00;;;16.20;99.90;;;;;;4964068;28;20040;-83
2021/08/16 05:03:05;;;;;;;0.00;0.00;;;16.20;99.90;;;;;;4963869;28;20109;-83
2021/08/16 05:05:31;;;;;;;0.10;0.10;;;16.30;99.90;;;;;;4961495;28;20804;-83
2021/08/16 05:07:59;;;;;;;0.10;0.10;;;16.30;99.90;;;;;;4964608;28;20030;-84
2021/08/16 05:10:26;;;;;;;0.00;0.00;;;16.30;99.90;;;;;;4960383;28;20498;-86
2021/08/16 05:12:53;;;;;;;0.08;0.08;;;16.60;99.90;;;;;;4962326;28;20035;-85
2021/08/16 05:15:20;;;;;;;0.00;0.00;;;16.70;99.90;;;;;;4962731;28;20549;-86
2021/08/16 05:17:46;;;;;;;0.05;0.05;;;16.40;99.90;;;;;;4963625;28;20026;-84
2021/08/16 05:20:12;;;;;;;0.00;0.00;;;17.00;99.90;;;;;;4964101;28;20035;-86
2021/08/16 05:22:43;;;;;;;0.00;0.00;;;16.90;99.90;;;;;;4964024;28;20883;-86
2021/08/16 05:25:09;;;;;;;0.43;0.10;;;16.80;99.90;;;;;;4962262;28;20038;-85
2021/08/16 05:27:35;;;;;;;0.00;0.00;;;16.80;99.90;;;;;;4958083;28;20039;-84
2021/08/16 05:30:02;;;;;;;0.32;0.17;;;16.90;99.90;;;;;;4962792;28;20030;-85
2021/08/16 05:32:28;;;;;;;0.38;0.38;;;17.20;99.90;;;;;;4960953;28;20107;-86
2021/08/16 05:34:53;;;;;;;0.00;0.00;;;17.10;99.90;;;;;;4963558;28;20044;-85
2021/08/16 05:37:19;;;;;;;0.13;0.03;;;17.30;99.90;;;;;;4963199;28;20047;-86
2021/08/16 05:39:45;;;;;;;0.23;0.07;;;17.30;99.90;;;;;;4959632;28;20050;-86
2021/08/16 05:42:13;;;;;;;0.00;0.00;;;17.50;99.90;;;;;;4962867;28;20297;-86
2021/08/16 05:44:39;;;;;;;0.28;0.20;;;17.20;99.90;;;;;;4961651;28;20867;-85
2021/08/16 05:47:05;;;;;;;0.10;0.10;;;17.40;99.90;;;;;;4963552;28;20039;-86
2021/08/16 05:49:31;;;;;;;;;;;17.00;99.90;;;;;;4963848;28;20030;-87
2021/08/16 05:51:57;;;;;;;0.13;0.13;;;16.90;99.90;;;;;;4962563;28;20293;-86
2021/08/16 05:54:23;;;;;;;0.23;0.23;;;17.10;99.90;;;;;;4962984;28;20069;-86
2021/08/16 05:56:48;;;;;;;0.10;0.10;;;17.00;99.90;;;;;;4963052;28;20088;-86
2021/08/16 05:59:14;;;;;;;3.10;0.87;;;17.60;99.90;;;;;;4962879;28;20530;-85
2021/08/16 06:01:40;;;;;;;0.10;0.10;;;17.30;99.90;;;;;;4965450;28;20031;-86
2021/08/16 06:04:07;;;;;;;0.00;0.00;;;17.30;99.90;;;;;;4962748;28;20023;-87
2021/08/16 06:06:34;;;;;;;0.00;0.00;;;17.20;99.90;;;;;;4962375;28;20453;-86
2021/08/16 06:08:59;;;;;;;;;;;17.50;99.90;;;;;;4962643;28;20034;-86
2021/08/16 06:11:26;;;;;;;0.00;0.00;;;17.20;99.90;;;;;;4961427;28;20670;-87
2021/08/16 06:13:52;;;;;;;0.00;0.00;;;17.20;99.90;;;;;;4962100;28;20047;-86
2021/08/16 06:16:18;;;;;;;0.10;0.10;;;17.10;99.90;;;;;;4962490;28;20169;-86
2021/08/16 06:18:44;;;;;;;1.00;0.57;;;17.20;99.90;;;;;;4962139;28;20579;-88
2021/08/16 06:21:10;;;;;;;0.10;0.10;;;17.20;99.90;;;;;;4963333;28;20053;-85
2021/08/16 06:23:36;;;;;;;0.53;0.40;;;17.30;99.90;;;;;;4965957;28;20533;-84
2021/08/16 06:26:03;;;;;;;0.30;0.30;;;17.40;99.90;;;;;;4967395;28;20493;-86
2021/08/16 06:28:28;;;;;;;0.15;0.15;;;17.60;99.90;;;;;;4965275;28;20086;-86
2021/08/16 06:30:54;;;;;;;0.00;0.00;;;17.60;99.90;;;;;;4965673;28;20035;-86
2021/08/16 06:33:20;;;;;;;0.43;0.43;;;17.50;99.90;;;;;;4965198;28;20034;-86
2021/08/16 06:35:47;;;;;;;0.10;0.10;;;17.70;99.90;;;;;;4966248;28;20037;-86
2021/08/16 06:38:21;;;;;;;;;;;17.80;99.90;;;;;;4963159;28;20502;-86
2021/08/16 06:40:48;;;;;;;0.25;0.25;;;17.70;99.90;;;;;;4962148;28;19968;-85
2021/08/16 06:43:14;;;;;;;0.10;0.10;;;17.60;99.90;;;;;;4964904;28;20331;-85
2021/08/16 06:45:40;;;;;;;0.00;0.00;;;17.50;99.90;;;;;;4960405;28;20026;-86
2021/08/16 06:48:06;;;;;;;0.10;0.10;;;17.90;99.90;;;;;;4965776;28;20509;-86
2021/08/16 06:50:32;;;;;;;0.43;0.43;;;17.90;99.90;;;;;;4965443;28;20073;-87
2021/08/16 06:52:58;;;;;;;0.00;0.00;;;17.50;99.90;;;;;;4966653;28;20042;-87
2021/08/16 06:55:23;;;;;;;0.23;0.23;;;17.60;99.90;;;;;;4966949;28;20042;-87
2021/08/16 06:57:49;;;;;;;0.10;0.10;;;17.80;99.90;;;;;;4965243;28;20114;-87
2021/08/16 07:00:15;;;;;;;0.10;0.10;;;17.70;99.90;;;;;;4965563;28;20046;-87
2021/08/16 07:02:41;;;;;;;0.20;0.20;;;17.80;99.90;;;;;;4964924;28;20545;-87
2021/08/16 07:05:08;;;;;;;0.63;0.63;;;18.30;99.90;;;;;;4965037;28;20501;-87
2021/08/16 07:07:34;;;;;;;0.40;0.40;;;18.40;99.90;;;;;;4959793;28;20043;-86
2021/08/16 07:10:00;;;;;;;0.00;0.00;;;18.60;99.90;;;;;;4965408;28;20042;-86
2021/08/16 07:12:26;;;;;;;0.47;0.10;;;18.60;99.90;;;;;;4964733;28;20050;-85
2021/08/16 07:14:51;;;;;;;0.20;0.20;;;18.70;99.90;;;;;;4963557;28;20093;-86
2021/08/16 07:17:17;;;;;;;0.10;0.10;;;18.80;99.90;;;;;;4962594;28;20039;-86
2021/08/16 07:19:42;;;;;;;0.00;0.00;;;19.00;99.90;;;;;;4962253;28;20027;-86
2021/08/16 07:22:08;;;;;;;0.40;0.40;;;19.00;99.90;;;;;;4965083;28;20857;-86
2021/08/16 07:24:34;;;;;;;1.50;1.03;;;18.80;99.90;;;;;;4963982;28;20469;-85
2021/08/16 07:27:00;;;;;;;0.00;0.00;;;18.60;99.90;;;;;;4964896;28;20035;-86
2021/08/16 07:29:25;;;;;;;0.10;0.10;;;18.40;99.90;;;;;;4964724;28;20529;-87
2021/08/16 07:31:52;;;;;;;0.40;0.10;;;18.30;99.90;;;;;;4948132;28;20421;-87
2021/08/16 07:34:18;;;;;;;0.15;0.15;;;18.70;99.90;;;;;;4952091;28;20047;-86
2021/08/16 07:36:43;;;;;;;0.47;0.43;;;19.20;99.90;;;;;;4947233;28;20030;-87
2021/08/16 07:39:09;;;;;;;3.33;0.30;;;19.50;99.90;;;;;;4947905;28;20118;-86
2021/08/16 07:41:34;;;;;;;0.03;0.03;;;19.30;99.90;;;;;;4946586;28;20082;-86
2021/08/16 07:44:00;;;;;;;0.10;0.10;;;18.80;99.90;;;;;;4948177;28;20034;-86
2021/08/16 07:46:26;;;;;;;0.00;0.00;;;18.40;99.90;;;;;;4950570;28;20086;-86
2021/08/16 07:48:51;;;;;;;0.10;0.00;;;18.70;99.90;;;;;;4949614;28;20042;-86
2021/08/16 07:51:17;;;;;;;0.03;0.03;;;18.50;99.90;;;;;;4951211;28;20458;-85
2021/08/16 07:53:46;;;;;;;0.00;0.00;;;19.30;99.90;;;;;;4953606;28;20035;-87
2021/08/16 07:56:12;;;;;;;0.10;0.10;;;20.80;99.90;;;;;;4950745;28;20042;-86
2021/08/16 07:58:37;;;;;;;0.00;0.00;;;20.60;99.90;;;;;;4959359;28;20050;-86
2021/08/16 08:01:03;;;;;;;0.47;0.47;;;19.90;99.90;;;;;;4963848;28;20114;-86
2021/08/16 08:03:30;;;;;;;0.03;0.03;;;19.80;99.90;;;;;;4964175;28;20034;-86
2021/08/16 08:05:56;;;;;;;8.32;1.23;;;20.80;99.90;;;;;;4964262;28;20035;-87
2021/08/16 08:08:22;;;;;;;0.03;0.03;;;22.30;99.90;;;;;;4965259;28;20042;-86
2021/08/16 08:10:47;;;;;;;0.05;0.05;;;23.40;99.90;;;;;;4954501;28;20043;-86
2021/08/16 08:13:14;;;;;;;0.00;0.00;;;25.40;99.90;;;;;;4961066;28;20521;-86
2021/08/16 08:15:40;;;;;;;0.17;0.17;;;25.50;99.90;;;;;;4963407;28;20097;-86
2021/08/16 08:18:06;;;;;;;0.00;0.00;;;27.60;99.90;;;;;;4963864;28;20142;-86
2021/08/16 08:20:32;;;;;;;0.05;0.05;;;27.30;99.90;;;;;;4962538;28;20505;-86
2021/08/16 08:22:58;;;;;;;0.00;0.00;;;25.50;99.90;;;;;;4961880;28;20592;-86
2021/08/16 08:25:25;;;;;;;0.15;0.15;;;29.60;99.90;;;;;;4962585;28;20895;-86
2021/08/16 08:27:51;;;;;;;0.00;0.00;;;30.10;99.70;;;;;;4964121;28;20118;-86
2021/08/16 08:30:16;;;;;;;0.38;0.28;;;28.00;97.60;;;;;;4961971;28;20033;-86
2021/08/16 08:32:50;;;;;;;0.43;0.43;;;27.10;99.20;;;;;;4963258;28;20039;-86
2021/08/16 08:35:18;;;;;;;0.00;0.00;;;25.70;99.80;;;;;;4964103;28;20035;-86
2021/08/16 08:37:43;;;;;;;0.00;0.00;;;24.20;99.90;;;;;;4965974;28;20026;-87
2021/08/16 08:40:09;;;;;;;0.53;0.53;;;24.10;99.90;;;;;;4962964;28;20038;-86
2021/08/16 08:42:37;;;;;;;0.00;0.00;;;25.20;99.90;;;;;;4963282;28;20023;-88
2021/08/16 08:45:04;;;;;;;0.03;0.03;;;27.00;99.80;;;;;;4962510;28;20050;-86
2021/08/16 08:47:32;;;;;;;2.22;0.20;;;26.80;96.90;;;;;;4962678;28;20058;-86
2021/08/16 08:49:57;;;;;;;0.55;0.55;;;24.70;99.90;;;;;;4965197;28;20165;-86
2021/08/16 08:52:23;;;;;;;0.30;0.23;;;22.50;99.90;;;;;;4963794;28;20133;-86
2021/08/16 08:54:48;;;;;;;0.00;0.00;;;21.50;99.90;;;;;;4964047;28;20496;-86
2021/08/16 08:57:19;;;;;;;0.13;0.13;;;21.20;99.90;;;;;;4957309;28;20051;-86
2021/08/16 08:59:44;;;;;;;0.00;0.00;;;21.00;99.90;;;;;;4959876;28;20573;-87
2021/08/16 09:02:12;;;;;;;0.00;0.00;;;20.90;99.90;;;;;;4961827;28;20035;-86
2021/08/16 09:04:53;;;;;;;0.00;0.00;;;20.40;99.90;;;;;;4965863;28;20038;-86
2021/08/16 09:07:30;;;;;;;0.38;0.35;;;20.20;99.90;;;;;;4963509;28;20023;-86
2021/08/16 09:09:56;;;;;;;0.00;0.00;;;19.70;99.90;;;;;;4962672;28;20061;-86
2021/08/16 09:12:28;;;;;;;3.17;0.97;;;19.30;99.90;;;;;;4963142;28;20073;-87
2021/08/16 09:14:54;;;;;;;0.47;0.28;;;19.00;99.90;;;;;;4963676;28;20453;-87
2021/08/16 09:17:31;;;;;;;1.38;0.15;;;19.20;99.90;;;;;;4962995;28;20568;-86
2021/08/16 09:19:58;;;;;;;0.00;0.00;;;19.30;99.90;;;;;;4961667;28;20045;-85
2021/08/16 09:22:35;;;;;;;0.45;0.05;;;20.80;99.90;;;;;;4962609;28;20107;-87
2021/08/16 09:25:05;;;;;;;0.00;0.00;;;22.00;99.90;;;;;;4963351;28;20481;-86
2021/08/16 09:27:31;;;;;;;0.00;0.00;;;23.30;99.90;;;;;;4962286;28;20031;-86
2021/08/16 09:29:57;;;;;;;6.82;0.55;;;23.30;99.90;;;;;;4963581;28;20052;-87
2021/08/16 09:32:34;;;;;;;7.30;1.38;;;23.00;99.90;;;;;;4946100;28;20031;-87
2021/08/16 09:35:08;;;;;;;0.10;0.10;;;22.30;99.90;;;;;;4961940;28;20042;-86
2021/08/16 09:37:35;;;;;;;0.32;0.32;;;22.10;99.90;;;;;;4964733;28;20779;-86
2021/08/16 09:40:03;;;;;;;0.00;0.00;;;21.60;99.90;;;;;;4962968;28;20118;-86
2021/08/16 09:42:41;;;;;;;0.10;0.10;;;20.70;99.90;;;;;;4963027;28;20105;-86
2021/08/16 09:45:07;;;;;;;0.00;0.00;;;20.70;99.90;;;;;;4962931;28;20490;-86
2021/08/16 09:47:44;;;;;;;0.35;0.35;;;20.80;99.90;;;;;;4962467;28;20034;-85
2021/08/16 09:50:12;;;;;;;0.00;0.00;;;20.90;99.90;;;;;;4962715;28;20070;-87
2021/08/16 09:52:38;;;;;;;0.20;0.20;;;20.80;99.90;;;;;;4962949;28;20039;-85
2021/08/16 09:55:04;;;;;;;0.20;0.20;;;20.80;99.90;;;;;;4963174;28;20070;-87
2021/08/16 09:57:31;;;;;;;0.00;0.00;;;20.10;99.90;;;;;;4964992;28;20031;-86
2021/08/16 09:59:57;;;;;;;0.00;0.00;;;19.60;99.90;;;;;;4962193;28;20485;-86
2021/08/16 10:02:26;;;;;;;0.67;0.63;;;19.30;99.90;;;;;;4963890;28;20037;-87
2021/08/16 10:04:55;;;;;;;0.40;0.40;;;19.20;99.90;;;;;;4966004;28;20027;-86
2021/08/16 10:07:23;;;;;;;1.85;1.23;;;19.30;99.90;;;;;;4964120;28;20031;-85
2021/08/16 10:09:49;;;;;;;0.00;0.00;;;19.50;99.90;;;;;;4965454;28;20037;-85
2021/08/16 10:12:16;;;;;;;0.47;0.35;;;19.10;99.90;;;;;;4962634;28;20038;-86
2021/08/16 10:14:44;;;;;;;0.43;0.43;;;18.80;99.90;;;;;;4966585;28;20035;-85
2021/08/16 10:17:10;;;;;;;0.32;0.32;;;19.10;99.90;;;;;;4965636;28;20031;-85
2021/08/16 10:19:41;;;;;;;0.20;0.20;;;20.30;99.90;;;;;;4966323;28;20034;-86
2021/08/16 10:22:08;;;;;;;1.38;0.90;;;21.60;99.90;;;;;;4963194;28;20038;-86
2021/08/16 10:24:34;;;;;;;;;;;22.70;99.90;;;;;;4966115;28;20063;-86
2021/08/16 10:27:00;;;;;;;0.40;0.40;;;25.90;99.90;;;;;;4962058;28;19945;-87
2021/08/16 10:29:28;;;;;;;0.45;0.43;;;27.10;99.70;;;;;;4963673;28;20035;-87
2021/08/16 10:31:55;;;;;;;0.00;0.00;;;25.80;99.90;;;;;;4967848;28;20034;-86
2021/08/16 10:34:25;;;;;;;;;;;29.60;96.70;;;;;;4964978;28;20039;-86
2021/08/16 10:37:12;;;;;;;0.08;0.08;;;30.90;93.60;;;;;;4963786;28;19918;-86
2021/08/16 10:39:43;;;;;;;0.70;0.32;;;27.80;93.30;;;;;;4961434;28;20058;-86
2021/08/16 10:42:10;;;;;;;0.00;0.00;;;25.90;95.20;;;;;;4964421;28;20034;-86
2021/08/16 10:44:47;;;;;;;0.00;0.00;;;24.20;97.60;;;;;;4964354;28;20114;-87
2021/08/16 10:47:28;;;;;;;5.85;0.43;;;23.20;99.30;;;;;;4956263;28;20046;-86
2021/08/16 10:50:06;;;;;;;0.00;0.00;;;22.70;99.40;;;;;;4964831;28;20046;-87
2021/08/16 10:52:32;;;;;;;0.80;0.70;;;22.50;99.90;;;;;;4967122;28;20046;-87
2021/08/16 10:55:07;;;;;;;;;;;23.00;99.50;;;;;;4963590;28;20035;-86
2021/08/16 10:57:34;;;;;;;0.05;0.05;;;23.10;99.20;;;;;;4959571;28;19915;-86
2021/08/16 11:00:00;;;;;;;0.00;0.00;;;23.90;98.70;;;;;;4959731;28;20054;-86
2021/08/16 11:02:26;;;;;;;0.00;0.00;;;25.30;96.80;;;;;;4956158;28;20386;-86
2021/08/16 11:04:52;;;;;;;0.50;0.20;;;25.40;96.20;;;;;;4962330;28;20031;-86
2021/08/16 11:07:23;;;;;;;0.20;0.20;;;25.50;95.40;;;;;;4958495;28;20071;-85
2021/08/16 11:09:56;;;;;;;0.15;0.15;;;25.60;95.30;;;;;;4953315;28;20301;-87
2021/08/16 11:12:34;;;;;;;0.00;0.00;;;24.30;99.90;;;;;;4958330;28;20054;-86
2021/08/16 11:15:00;;;;;;;0.30;0.30;;;24.30;96.50;;;;;;4957706;28;20037;-87
2021/08/16 11:17:30;;;;;;;0.10;0.10;;;24.70;95.40;;;;;;4956361;28;20027;-86
2021/08/16 11:20:01;;;;;;;0.22;0.17;;;23.90;97.30;;;;;;4956130;28;20038;-87
2021/08/16 11:22:28;;;;;;;0.10;0.10;;;22.80;97.60;;;;;;4963311;28;20069;-88
2021/08/16 11:24:54;;;;;;;0.00;0.00;;;22.00;98.90;;;;;;4969558;28;20030;-88
2021/08/16 11:27:21;;;;;;;0.00;0.00;;;21.40;99.90;;;;;;4964638;28;20031;-88
2021/08/16 11:30:04;;;;;;;0.03;0.03;;;20.80;99.90;;;;;;4964784;28;20065;-87
2021/08/16 11:32:31;;;;;;;0.85;0.63;;;20.30;99.90;;;;;;4964690;28;20034;-87
2021/08/16 11:34:58;;;;;;;0.20;0.20;;;20.60;99.90;;;;;;4964865;28;20109;-86
2021/08/16 11:37:33;;;;;;;0.40;0.25;;;21.90;99.90;;;;;;4965191;28;20134;-87
2021/08/16 11:40:00;;;;;;;0.00;0.00;;;23.40;99.90;;;;;;4956407;28;20037;-87
2021/08/16 11:42:26;;;;;;;0.63;0.63;;;24.80;99.90;;;;;;4964462;28;20034;-86
2021/08/16 11:45:10;;;;;;;0.20;0.20;;;25.20;96.90;;;;;;4960770;28;20532;-87
2021/08/16 11:47:41;;;;;;;1.25;1.15;;;25.20;95.80;;;;;;4958428;28;20073;-87
2021/08/16 11:50:08;;;;;;;0.05;0.05;;;25.50;96.50;;;;;;4957218;28;20039;-86
2021/08/16 11:52:35;;;;;;;0.10;0.10;;;24.40;99.90;;;;;;4952225;28;20023;-88
2021/08/16 11:55:04;;;;;;;;;;;24.90;96.50;;;;;;4954455;28;20062;-87
2021/08/16 11:57:31;;;;;;;0.10;0.10;;;24.90;95.10;;;;;;4955184;28;19968;-87
2021/08/16 11:59:58;;;;;;;0.00;0.00;;;25.30;95.80;;;;;;4957193;28;20031;-87
2021/08/16 12:02:26;;;;;;;0.20;0.20;;;25.30;95.20;;;;;;4954322;28;20543;-88
2021/08/16 12:04:53;;;;;;;0.55;0.55;;;25.20;94.80;;;;;;4954628;28;20050;-87
2021/08/16 12:07:27;;;;;;;0.00;0.00;;;25.00;95.40;;;;;;4954175;28;20046;-87
2021/08/16 12:09:55;;;;;;;0.00;0.00;;;25.20;94.90;;;;;;4955629;28;20034;-88
2021/08/16 12:12:25;;;;;;;0.00;0.00;;;24.50;94.80;;;;;;4954294;28;20034;-87
2021/08/16 12:15:09;;;;;;;0.20;0.10;;;23.80;95.40;;;;;;4951649;28;20153;-87
2021/08/16 12:17:35;;;;;;;0.00;0.00;;;23.90;95.30;;;;;;4952434;28;20035;-88
2021/08/16 12:20:05;;;;;;;0.00;0.00;;;24.00;94.70;;;;;;4947849;28;20034;-88
2021/08/16 12:22:31;;;;;;;0.00;0.00;;;24.20;95.10;;;;;;4945653;28;20529;-88
2021/08/16 12:25:04;;;;;;;;;;;24.00;95.70;;;;;;4949921;28;20039;-88
2021/08/16 12:27:30;;;;;;;0.00;0.00;;;23.90;95.80;;;;;;4948153;28;19949;-87
2021/08/16 12:29:56;;;;;;;0.00;0.00;;;24.20;96.10;;;;;;4947850;28;20792;-87
2021/08/16 12:32:26;;;;;;;0.00;0.00;;;23.80;96.30;;;;;;4949917;28;20307;-89
2021/08/16 12:34:51;;;;;;;0.00;0.00;;;24.10;96.10;;;;;;4958199;28;20134;-88
2021/08/16 12:37:25;;;;;;;0.90;0.67;;;25.10;94.30;;;;;;4952137;28;20027;-88
2021/08/16 12:39:51;;;;;;;0.20;0.20;;;25.10;93.90;;;;;;4948394;28;20580;-88
2021/08/16 12:42:17;;;;;;;0.00;0.00;;;23.90;94.80;;;;;;4951508;28;20031;-88
2021/08/16 12:44:51;;;;;;;0.00;0.00;;;23.00;94.90;;;;;;4952094;28;20047;-87
2021/08/16 12:47:26;;;;;;;1.25;0.15;;;22.40;97.20;;;;;;4947859;28;20506;-87
2021/08/16 12:49:56;;;;;;;4.88;0.15;;;23.00;96.50;;;;;;4958184;28;20050;-88